sensor_id;sensor_type;location;lat;lon;timestamp;pressure;altitude;pressure_sealevel;temperature;humidity
13241;BME280;6687;47.790;7.322;2022-10-22T06:12:23;98961.72;;;12.89;100.00
13241;BME280;6687;47.790;7.322;2022-10-22T06:14:50;98964.28;;;12.98;100.00
13241;BME280;6687;47.790;7.322;2022-10-22T06:17:16;98962.50;;;13.03;100.00
13241;BME280;6687;47.790;7.322;2022-10-22T06:19:44;98974.69;;;12.97;100.00
13241;BME280;6687;47.790;7.322;2022-10-22T06:22:11;98974.69;;;12.97;100.00
13241;BME280;6687;47.790;7.322;2022-10-22T06:24:38;98977.28;;;12.97;100.00
13241;BME280;6687;47.790;7.322;2022-10-22T06:27:04;98979.91;;;12.93;100.00
13241;BME280;6687;47.790;7.322;2022-10-22T06:29:33;98992.06;;;12.91;100.00
13241;BME280;6687;47.790;7.322;2022-10-22T06:31:59;98997.22;;;12.96;100.00
13241;BME280;6687;47.790;7.322;2022-10-22T06:34:26;98994.63;;;12.94;100.00
13241;BME280;6687;47.790;7.322;2022-10-22T06:36:53;98995.53;;;12.93;100.00
13241;BME280;6687;47.790;7.322;2022-10-22T06:39:19;99006.78;;;12.92;100.00
13241;BME280;6687;47.790;7.322;2022-10-22T06:41:46;99001.59;;;12.92;100.00
13241;BME280;6687;47.790;7.322;2022-10-22T06:44:14;99004.13;;;13.00;100.00
13241;BME280;6687;47.790;7.322;2022-10-22T06:46:42;99011.03;;;13.04;100.00
13241;BME280;6687;47.790;7.322;2022-10-22T06:49:11;99009.34;;;13.02;100.00
13241;BME280;6687;47.790;7.322;2022-10-22T06:51:38;99017.13;;;12.99;100.00
13241;BME280;6687;47.790;7.322;2022-10-22T06:54:05;99016.22;;;13.06;100.00
13241;BME280;6687;47.790;7.322;2022-10-22T06:56:32;99022.28;;;13.05;100.00
13241;BME280;6687;47.790;7.322;2022-10-22T06:58:59;99025.78;;;13.04;100.00
13241;BME280;6687;47.790;7.322;2022-10-22T07:01:28;99038.75;;;13.08;100.00
13241;BME280;6687;47.790;7.322;2022-10-22T07:03:57;99039.59;;;13.15;100.00
13241;BME280;6687;47.790;7.322;2022-10-22T07:06:25;99039.59;;;13.15;100.00
13241;BME280;6687;47.790;7.322;2022-10-22T07:08:53;99046.50;;;13.19;100.00
13241;BME280;6687;47.790;7.322;2022-10-22T07:11:21;99056.00;;;13.23;100.00
13241;BME280;6687;47.790;7.322;2022-10-22T07:13:49;99051.66;;;13.25;100.00
13241;BME280;6687;47.790;7.322;2022-10-22T07:16:17;99060.31;;;13.27;100.00
13241;BME280;6687;47.790;7.322;2022-10-22T07:18:44;99045.53;;;13.36;100.00
13241;BME280;6687;47.790;7.322;2022-10-22T07:21:14;99048.03;;;13.45;100.00
13241;BME280;6687;47.790;7.322;2022-10-22T07:23:41;99046.31;;;13.44;100.00
13241;BME280;6687;47.790;7.322;2022-10-22T07:26:09;99054.13;;;13.44;100.00
13241;BME280;6687;47.790;7.322;2022-10-22T07:28:37;99052.38;;;13.44;100.00
13241;BME280;6687;47.790;7.322;2022-10-22T07:31:05;99047.97;;;13.54;100.00
13241;BME280;6687;47.790;7.322;2022-10-22T07:33:32;99049.66;;;13.58;100.00
13241;BME280;6687;47.790;7.322;2022-10-22T07:36:00;99047.00;;;13.66;100.00
13241;BME280;6687;47.790;7.322;2022-10-22T07:38:29;99049.59;;;13.69;100.00
13241;BME280;6687;47.790;7.322;2022-10-22T07:40:56;99049.53;;;13.73;100.00
13241;BME280;6687;47.790;7.322;2022-10-22T07:43:24;99057.34;;;13.72;100.00
13241;BME280;6687;47.790;7.322;2022-10-22T07:45:51;99048.59;;;13.81;100.00
13241;BME280;6687;47.790;7.322;2022-10-22T07:48:20;99050.31;;;13.80;100.00
13241;BME280;6687;47.790;7.322;2022-10-22T07:50:48;99051.16;;;13.84;100.00
13241;BME280;6687;47.790;7.322;2022-10-22T07:53:15;99054.53;;;13.92;100.00
13241;BME280;6687;47.790;7.322;2022-10-22T07:55:43;99061.44;;;13.99;100.00
13241;BME280;6687;47.790;7.322;2022-10-22T07:58:12;99051.78;;;14.07;100.00
13241;BME280;6687;47.790;7.322;2022-10-22T08:00:39;99061.38;;;14.05;100.00
13241;BME280;6687;47.790;7.322;2022-10-22T08:03:07;99056.06;;;14.15;100.00
13241;BME280;6687;47.790;7.322;2022-10-22T08:05:35;99050.72;;;14.24;100.00
13241;BME280;6687;47.790;7.322;2022-10-22T08:08:03;99054.16;;;14.29;100.00
13241;BME280;6687;47.790;7.322;2022-10-22T08:10:30;99055.00;;;14.29;100.00
13241;BME280;6687;47.790;7.322;2022-10-22T08:12:58;99057.59;;;14.31;100.00
13241;BME280;6687;47.790;7.322;2022-10-22T08:15:25;99057.56;;;14.34;100.00
13241;BME280;6687;47.790;7.322;2022-10-22T08:17:52;99052.25;;;14.43;100.00
13241;BME280;6687;47.790;7.322;2022-10-22T08:20:19;99057.38;;;14.51;100.00
13241;BME280;6687;47.790;7.322;2022-10-22T08:22:46;99057.38;;;14.49;100.00
13241;BME280;6687;47.790;7.322;2022-10-22T08:25:13;99064.28;;;14.53;100.00
13241;BME280;6687;47.790;7.322;2022-10-22T08:27:42;99063.41;;;14.56;100.00
13241;BME280;6687;47.790;7.322;2022-10-22T08:30:11;99069.50;;;14.57;100.00
13241;BME280;6687;47.790;7.322;2022-10-22T08:32:38;99070.28;;;14.63;100.00
13241;BME280;6687;47.790;7.322;2022-10-22T08:35:05;99071.94;;;14.69;100.00
13241;BME280;6687;47.790;7.322;2022-10-22T08:37:32;99067.56;;;14.71;100.00
13241;BME280;6687;47.790;7.322;2022-10-22T08:39:59;99074.44;;;14.78;100.00
13241;BME280;6687;47.790;7.322;2022-10-22T08:42:38;99065.72;;;14.79;100.00
13241;BME280;6687;47.790;7.322;2022-10-22T08:45:12;99071.75;;;14.84;100.00
13241;BME280;6687;47.790;7.322;2022-10-22T08:48:00;99063.78;;;14.94;100.00
13241;BME280;6687;47.790;7.322;2022-10-22T08:50:33;99071.50;;;15.01;100.00
13241;BME280;6687;47.790;7.322;2022-10-22T08:53:03;99069.66;;;15.08;100.00
13241;BME280;6687;47.790;7.322;2022-10-22T08:55:32;99068.78;;;15.09;100.00
13241;BME280;6687;47.790;7.322;2022-10-22T08:58:04;99073.00;;;15.18;100.00
13241;BME280;6687;47.790;7.322;2022-10-22T09:00:44;99073.81;;;15.21;100.00
13241;BME280;6687;47.790;7.322;2022-10-22T09:03:27;99074.66;;;15.23;100.00
13241;BME280;6687;47.790;7.322;2022-10-22T09:06:02;99071.06;;;15.30;100.00
13241;BME280;6687;47.790;7.322;2022-10-22T09:08:31;99077.97;;;15.35;100.00
13241;BME280;6687;47.790;7.322;2022-10-22T09:11:01;99075.25;;;15.41;100.00
13241;BME280;6687;47.790;7.322;2022-10-22T09:13:28;99069.94;;;15.47;100.00
13241;BME280;6687;47.790;7.322;2022-10-22T09:16:00;99075.91;;;15.54;100.00
13241;BME280;6687;47.790;7.322;2022-10-22T09:18:35;99074.06;;;15.62;100.00
13241;BME280;6687;47.790;7.322;2022-10-22T09:21:15;99080.03;;;15.68;100.00
13241;BME280;6687;47.790;7.322;2022-10-22T09:23:55;99076.41;;;15.77;100.00
13241;BME280;6687;47.790;7.322;2022-10-22T09:26:24;99079.81;;;15.82;100.00
13241;BME280;6687;47.790;7.322;2022-10-22T09:28:51;99077.13;;;15.85;100.00
13241;BME280;6687;47.790;7.322;2022-10-22T09:31:19;99091.94;;;15.86;100.00
13241;BME280;6687;47.790;7.322;2022-10-22T09:33:49;99088.38;;;15.92;100.00
13241;BME280;6687;47.790;7.322;2022-10-22T09:36:19;99098.75;;;15.95;100.00
13241;BME280;6687;47.790;7.322;2022-10-22T09:38:48;99100.41;;;15.99;100.00
13241;BME280;6687;47.790;7.322;2022-10-22T09:41:16;99099.47;;;16.03;100.00
13241;BME280;6687;47.790;7.322;2022-10-22T09:43:45;99102.72;;;16.16;100.00
13241;BME280;6687;47.790;7.322;2022-10-22T09:46:15;99098.34;;;16.18;100.00
13241;BME280;6687;47.790;7.322;2022-10-22T09:48:47;99107.84;;;16.22;100.00
13241;BME280;6687;47.790;7.322;2022-10-22T09:51:19;99090.41;;;16.23;100.00
13241;BME280;6687;47.790;7.322;2022-10-22T09:53:47;99094.56;;;16.33;100.00
13241;BME280;6687;47.790;7.322;2022-10-22T09:56:25;99090.13;;;16.37;100.00
13241;BME280;6687;47.790;7.322;2022-10-22T09:58:55;99092.59;;;16.44;100.00
13241;BME280;6687;47.790;7.322;2022-10-22T10:01:24;99095.13;;;16.49;100.00
13241;BME280;6687;47.790;7.322;2022-10-22T10:03:52;99095.88;;;16.56;100.00
13241;BME280;6687;47.790;7.322;2022-10-22T10:06:22;99087.91;;;16.60;100.00
13241;BME280;6687;47.790;7.322;2022-10-22T10:08:49;99089.59;;;16.63;100.00
13241;BME280;6687;47.790;7.322;2022-10-22T10:11:20;99088.66;;;16.67;100.00
13241;BME280;6687;47.790;7.322;2022-10-22T10:13:55;99092.81;;;16.77;100.00
13241;BME280;6687;47.790;7.322;2022-10-22T10:16:39;99098.81;;;16.82;100.00
13241;BME280;6687;47.790;7.322;2022-10-22T10:19:21;99094.41;;;16.84;100.00
13241;BME280;6687;47.790;7.322;2022-10-22T10:21:59;99088.31;;;16.85;100.00
13241;BME280;6687;47.790;7.322;2022-10-22T10:24:41;99089.03;;;16.92;100.00
13241;BME280;6687;47.790;7.322;2022-10-22T10:27:17;99095.84;;;16.99;100.00
13241;BME280;6687;47.790;7.322;2022-10-22T10:29:52;99092.50;;;16.93;100.00
13241;BME280;6687;47.790;7.322;2022-10-22T10:32:41;99087.91;;;17.04;100.00
13241;BME280;6687;47.790;7.322;2022-10-22T10:35:20;99079.03;;;17.11;100.00
13241;BME280;6687;47.790;7.322;2022-10-22T10:40:44;99085.78;;;17.20;100.00
13241;BME280;6687;47.790;7.322;2022-10-22T10:43:17;99089.06;;;17.29;100.00
13241;BME280;6687;47.790;7.322;2022-10-22T10:45:56;99084.44;;;17.41;100.00
13241;BME280;6687;47.790;7.322;2022-10-22T10:48:47;99085.31;;;17.40;100.00
13241;BME280;6687;47.790;7.322;2022-10-22T10:51:30;99076.50;;;17.44;100.00
13241;BME280;6687;47.790;7.322;2022-10-22T10:54:20;99085.09;;;17.49;100.00
13241;BME280;6687;47.790;7.322;2022-10-22T10:56:53;99088.25;;;17.63;100.00
13241;BME280;6687;47.790;7.322;2022-10-22T10:59:33;99087.31;;;17.64;100.00
13241;BME280;6687;47.790;7.322;2022-10-22T11:05:33;99093.00;;;17.83;100.00
13241;BME280;6687;47.790;7.322;2022-10-22T11:08:09;99096.09;;;17.99;100.00
13241;BME280;6687;47.790;7.322;2022-10-22T11:10:39;99094.94;;;18.09;100.00
13241;BME280;6687;47.790;7.322;2022-10-22T11:13:12;99094.91;;;18.11;100.00
13241;BME280;6687;47.790;7.322;2022-10-22T11:15:44;99082.06;;;18.00;100.00
13241;BME280;6687;47.790;7.322;2022-10-22T11:18:17;99077.53;;;18.07;100.00
13241;BME280;6687;47.790;7.322;2022-10-22T11:20:52;99085.13;;;18.18;100.00
13241;BME280;6687;47.790;7.322;2022-10-22T11:23:26;99083.03;;;18.31;100.00
13241;BME280;6687;47.790;7.322;2022-10-22T11:25:54;99082.06;;;18.33;100.00
13241;BME280;6687;47.790;7.322;2022-10-22T11:28:25;99087.28;;;18.35;100.00
13241;BME280;6687;47.790;7.322;2022-10-22T11:30:57;99080.78;;;18.48;100.00
13241;BME280;6687;47.790;7.322;2022-10-22T11:33:28;99083.47;;;18.46;100.00
13241;BME280;6687;47.790;7.322;2022-10-22T11:35:58;99086.53;;;18.61;100.00
13241;BME280;6687;47.790;7.322;2022-10-22T11:38:29;99089.66;;;18.74;100.00
13241;BME280;6687;47.790;7.322;2022-10-22T11:40:59;99078.34;;;18.72;100.00
13241;BME280;6687;47.790;7.322;2022-10-22T11:43:30;99082.66;;;18.74;100.00
13241;BME280;6687;47.790;7.322;2022-10-22T11:46:03;99076.06;;;18.91;100.00
13241;BME280;6687;47.790;7.322;2022-10-22T11:48:36;99074.69;;;18.77;100.00
13241;BME280;6687;47.790;7.322;2022-10-22T11:51:33;99061.75;;;19.01;100.00
13241;BME280;6687;47.790;7.322;2022-10-22T11:54:22;99069.09;;;18.90;100.00
13241;BME280;6687;47.790;7.322;2022-10-22T11:56:51;99067.00;;;19.01;100.00
13241;BME280;6687;47.790;7.322;2022-10-22T11:59:36;99073.41;;;19.20;100.00
13241;BME280;6687;47.790;7.322;2022-10-22T12:02:23;99066.19;;;19.27;100.00
13241;BME280;6687;47.790;7.322;2022-10-22T12:04:49;99067.56;;;19.39;100.00
13241;BME280;6687;47.790;7.322;2022-10-22T12:07:31;99074.16;;;19.52;100.00
13241;BME280;6687;47.790;7.322;2022-10-22T12:10:04;99073.13;;;19.56;100.00
13241;BME280;6687;47.790;7.322;2022-10-22T12:12:34;99075.50;;;19.64;100.00
13241;BME280;6687;47.790;7.322;2022-10-22T12:15:02;99073.81;;;19.61;100.00
13241;BME280;6687;47.790;7.322;2022-10-22T12:17:46;99069.81;;;19.78;100.00
13241;BME280;6687;47.790;7.322;2022-10-22T12:20:13;99065.19;;;19.84;100.00
13241;BME280;6687;47.790;7.322;2022-10-22T12:22:41;99067.28;;;19.75;100.00
13241;BME280;6687;47.790;7.322;2022-10-22T12:25:16;99063.59;;;19.80;100.00
13241;BME280;6687;47.790;7.322;2022-10-22T12:27:49;99067.66;;;19.89;100.00
13241;BME280;6687;47.790;7.322;2022-10-22T12:30:19;99061.38;;;19.93;100.00
13241;BME280;6687;47.790;7.322;2022-10-22T12:32:50;99049.44;;;20.10;100.00
13241;BME280;6687;47.790;7.322;2022-10-22T12:35:19;99047.34;;;19.94;100.00
13241;BME280;6687;47.790;7.322;2022-10-22T12:37:48;99047.69;;;20.09;100.00
13241;BME280;6687;47.790;7.322;2022-10-22T12:40:20;99056.53;;;20.08;100.00
13241;BME280;6687;47.790;7.322;2022-10-22T12:42:48;99043.16;;;20.14;100.00
13241;BME280;6687;47.790;7.322;2022-10-22T12:45:15;99038.16;;;20.06;100.00
13241;BME280;6687;47.790;7.322;2022-10-22T12:47:45;99029.16;;;19.88;100.00
13241;BME280;6687;47.790;7.322;2022-10-22T12:50:17;99035.84;;;20.22;100.00
13241;BME280;6687;47.790;7.322;2022-10-22T12:52:44;99031.38;;;20.24;100.00
13241;BME280;6687;47.790;7.322;2022-10-22T12:55:16;99029.63;;;20.23;100.00
13241;BME280;6687;47.790;7.322;2022-10-22T12:57:46;99026.34;;;20.18;100.00
13241;BME280;6687;47.790;7.322;2022-10-22T13:00:21;99032.84;;;20.31;100.00
13241;BME280;6687;47.790;7.322;2022-10-22T13:02:49;99024.66;;;20.39;100.00
13241;BME280;6687;47.790;7.322;2022-10-22T13:05:21;99025.09;;;20.52;100.00
13241;BME280;6687;47.790;7.322;2022-10-22T13:07:50;99019.88;;;20.01;100.00
13241;BME280;6687;47.790;7.322;2022-10-22T13:10:23;99017.69;;;20.38;100.00
13241;BME280;6687;47.790;7.322;2022-10-22T13:12:54;99019.56;;;20.11;100.00
13241;BME280;6687;47.790;7.322;2022-10-22T13:15:32;99012.91;;;20.25;100.00
13241;BME280;6687;47.790;7.322;2022-10-22T13:18:06;99025.09;;;20.03;100.00
13241;BME280;6687;47.790;7.322;2022-10-22T13:20:52;99024.00;;;20.34;100.00
13241;BME280;6687;47.790;7.322;2022-10-22T13:23:21;99021.22;;;20.37;100.00
13241;BME280;6687;47.790;7.322;2022-10-22T13:25:58;99014.88;;;20.19;100.00
13241;BME280;6687;47.790;7.322;2022-10-22T13:28:26;99014.25;;;20.12;100.00
13241;BME280;6687;47.790;7.322;2022-10-22T13:30:55;99006.97;;;19.95;98.01
13241;BME280;6687;47.790;7.322;2022-10-22T13:33:24;99014.63;;;20.01;98.81
13241;BME280;6687;47.790;7.322;2022-10-22T13:35:52;99014.81;;;20.20;100.00
13241;BME280;6687;47.790;7.322;2022-10-22T13:38:21;99007.75;;;19.97;95.85
13241;BME280;6687;47.790;7.322;2022-10-22T13:40:48;99004.69;;;20.33;100.00
13241;BME280;6687;47.790;7.322;2022-10-22T13:43:17;99003.69;;;20.37;100.00
13241;BME280;6687;47.790;7.322;2022-10-22T13:45:45;99008.00;;;20.15;100.00
13241;BME280;6687;47.790;7.322;2022-10-22T13:48:14;99000.94;;;19.66;86.97
13241;BME280;6687;47.790;7.322;2022-10-22T13:50:43;98995.72;;;20.15;100.00
13241;BME280;6687;47.790;7.322;2022-10-22T13:53:14;99007.22;;;20.13;100.00
13241;BME280;6687;47.790;7.322;2022-10-22T13:55:42;99000.88;;;19.93;96.71
13241;BME280;6687;47.790;7.322;2022-10-22T13:58:12;99002.91;;;20.35;100.00
13241;BME280;6687;47.790;7.322;2022-10-22T14:00:42;99003.31;;;20.23;100.00
13241;BME280;6687;47.790;7.322;2022-10-22T14:03:12;99004.38;;;20.42;100.00
13241;BME280;6687;47.790;7.322;2022-10-22T14:05:39;99002.44;;;20.48;100.00
13241;BME280;6687;47.790;7.322;2022-10-22T14:08:08;98994.84;;;20.63;100.00
13241;BME280;6687;47.790;7.322;2022-10-22T14:10:36;99007.56;;;20.51;100.00
13241;BME280;6687;47.790;7.322;2022-10-22T14:13:05;99007.22;;;20.36;100.00
13241;BME280;6687;47.790;7.322;2022-10-22T14:15:31;99004.94;;;20.51;100.00
13241;BME280;6687;47.790;7.322;2022-10-22T14:18:00;98999.06;;;19.95;94.11
13241;BME280;6687;47.790;7.322;2022-10-22T14:20:29;99009.84;;;20.36;100.00
13241;BME280;6687;47.790;7.322;2022-10-22T14:23:02;99007.56;;;20.27;100.00
13241;BME280;6687;47.790;7.322;2022-10-22T14:25:31;98997.31;;;20.43;100.00
13241;BME280;6687;47.790;7.322;2022-10-22T14:27:57;98995.44;;;20.46;100.00
13241;BME280;6687;47.790;7.322;2022-10-22T14:30:25;99000.66;;;19.99;100.00
13241;BME280;6687;47.790;7.322;2022-10-22T14:32:54;99000.13;;;20.15;98.68
13241;BME280;6687;47.790;7.322;2022-10-22T14:35:22;98994.47;;;20.02;96.23
13241;BME280;6687;47.790;7.322;2022-10-22T14:37:49;98994.00;;;20.14;99.09
13241;BME280;6687;47.790;7.322;2022-10-22T14:40:17;98992.94;;;20.20;100.00
13241;BME280;6687;47.790;7.322;2022-10-22T14:42:45;98981.72;;;20.38;100.00
13241;BME280;6687;47.790;7.322;2022-10-22T14:45:15;98981.47;;;20.44;100.00
13241;BME280;6687;47.790;7.322;2022-10-22T14:47:43;98980.56;;;20.45;100.00
13241;BME280;6687;47.790;7.322;2022-10-22T14:50:10;98979.88;;;20.40;100.00
13241;BME280;6687;47.790;7.322;2022-10-22T14:52:39;98986.91;;;20.40;100.00
13241;BME280;6687;47.790;7.322;2022-10-22T14:55:08;98983.25;;;20.44;100.00
13241;BME280;6687;47.790;7.322;2022-10-22T14:57:34;98981.84;;;20.35;100.00
13241;BME280;6687;47.790;7.322;2022-10-22T15:00:04;98993.22;;;20.36;100.00
13241;BME280;6687;47.790;7.322;2022-10-22T15:02:32;98989.94;;;20.53;100.00
13241;BME280;6687;47.790;7.322;2022-10-22T15:04:59;98983.53;;;20.36;100.00
13241;BME280;6687;47.790;7.322;2022-10-22T15:07:25;98995.44;;;20.46;100.00
13241;BME280;6687;47.790;7.322;2022-10-22T15:09:54;98997.03;;;20.51;100.00
13241;BME280;6687;47.790;7.322;2022-10-22T15:12:20;99000.47;;;20.29;100.00
13241;BME280;6687;47.790;7.322;2022-10-22T15:14:47;99001.63;;;20.45;100.00
13241;BME280;6687;47.790;7.322;2022-10-22T15:17:14;98999.91;;;20.44;100.00
13241;BME280;6687;47.790;7.322;2022-10-22T15:19:41;98996.94;;;20.30;100.00
13241;BME280;6687;47.790;7.322;2022-10-22T15:22:07;99007.63;;;20.25;100.00
13241;BME280;6687;47.790;7.322;2022-10-22T15:24:34;99001.50;;;20.25;100.00
13241;BME280;6687;47.790;7.322;2022-10-22T15:27:02;99005.06;;;20.24;100.00
13241;BME280;6687;47.790;7.322;2022-10-22T15:29:30;99012.47;;;20.13;100.00
13241;BME280;6687;47.790;7.322;2022-10-22T15:31:57;99004.75;;;19.83;96.98
13241;BME280;6687;47.790;7.322;2022-10-22T15:34:27;99005.50;;;20.12;100.00
13241;BME280;6687;47.790;7.322;2022-10-22T15:36:56;99005.34;;;19.91;99.20
13241;BME280;6687;47.790;7.322;2022-10-22T15:39:23;99000.53;;;20.04;100.00
13241;BME280;6687;47.790;7.322;2022-10-22T15:41:50;99003.03;;;20.07;100.00
13241;BME280;6687;47.790;7.322;2022-10-22T15:44:20;99005.59;;;20.09;100.00
13241;BME280;6687;47.790;7.322;2022-10-22T15:46:48;99004.75;;;20.08;100.00
13241;BME280;6687;47.790;7.322;2022-10-22T15:49:15;99002.09;;;20.10;100.00
13241;BME280;6687;47.790;7.322;2022-10-22T15:51:42;99001.19;;;20.09;100.00
13241;BME280;6687;47.790;7.322;2022-10-22T15:54:12;98997.75;;;20.07;100.00
13241;BME280;6687;47.790;7.322;2022-10-22T15:56:39;98999.50;;;20.08;100.00
13241;BME280;6687;47.790;7.322;2022-10-22T15:59:06;99000.47;;;20.05;100.00
13241;BME280;6687;47.790;7.322;2022-10-22T16:01:34;99006.69;;;20.03;100.00
13241;BME280;6687;47.790;7.322;2022-10-22T16:04:01;99000.81;;;19.96;100.00
13241;BME280;6687;47.790;7.322;2022-10-22T16:06:30;98999.94;;;19.96;100.00
13241;BME280;6687;47.790;7.322;2022-10-22T16:08:58;99004.31;;;19.95;100.00
13241;BME280;6687;47.790;7.322;2022-10-22T16:11:27;98998.25;;;19.93;100.00
13241;BME280;6687;47.790;7.322;2022-10-22T16:13:54;98995.84;;;19.87;100.00
13241;BME280;6687;47.790;7.322;2022-10-22T16:16:22;98997.81;;;19.82;100.00
13241;BME280;6687;47.790;7.322;2022-10-22T16:18:51;98996.19;;;19.78;100.00
13241;BME280;6687;47.790;7.322;2022-10-22T16:21:19;98999.91;;;19.72;100.00
13241;BME280;6687;47.790;7.322;2022-10-22T16:23:46;98997.59;;;19.61;100.00
13241;BME280;6687;47.790;7.322;2022-10-22T16:26:14;98998.81;;;19.51;100.00
13241;BME280;6687;47.790;7.322;2022-10-22T16:28:42;98993.59;;;19.50;100.00
13241;BME280;6687;47.790;7.322;2022-10-22T16:31:11;98997.34;;;19.44;100.00
13241;BME280;6687;47.790;7.322;2022-10-22T16:33:39;98997.63;;;19.35;100.00
13241;BME280;6687;47.790;7.322;2022-10-22T16:36:08;99002.25;;;19.28;100.00
13241;BME280;6687;47.790;7.322;2022-10-22T16:38:35;98999.13;;;19.15;100.00
13241;BME280;6687;47.790;7.322;2022-10-22T16:41:07;98997.56;;;19.10;100.00
13241;BME280;6687;47.790;7.322;2022-10-22T16:43:33;99003.16;;;18.99;100.00
13241;BME280;6687;47.790;7.322;2022-10-22T16:46:01;99001.75;;;18.88;100.00
13241;BME280;6687;47.790;7.322;2022-10-22T16:48:28;98998.34;;;18.85;100.00
13241;BME280;6687;47.790;7.322;2022-10-22T16:50:56;99006.53;;;18.74;100.00
13241;BME280;6687;47.790;7.322;2022-10-22T16:53:24;99003.63;;;18.54;100.00
13241;BME280;6687;47.790;7.322;2022-10-22T16:55:51;98991.94;;;18.36;100.00
13241;BME280;6687;47.790;7.322;2022-10-22T16:58:17;98996.66;;;18.24;100.00
13241;BME280;6687;47.790;7.322;2022-10-22T17:00:44;98996.13;;;18.41;100.00
13241;BME280;6687;47.790;7.322;2022-10-22T17:03:11;99007.00;;;18.29;100.00
13241;BME280;6687;47.790;7.322;2022-10-22T17:05:37;99005.47;;;18.20;100.00
13241;BME280;6687;47.790;7.322;2022-10-22T17:08:04;99003.63;;;18.24;100.00
13241;BME280;6687;47.790;7.322;2022-10-22T17:10:33;99007.88;;;18.28;100.00
13241;BME280;6687;47.790;7.322;2022-10-22T17:13:00;99008.16;;;18.19;100.00
13241;BME280;6687;47.790;7.322;2022-10-22T17:15:27;99009.22;;;18.12;100.00
13241;BME280;6687;47.790;7.322;2022-10-22T17:17:54;99017.19;;;18.08;100.00
13241;BME280;6687;47.790;7.322;2022-10-22T17:20:20;99013.09;;;17.98;100.00
13241;BME280;6687;47.790;7.322;2022-10-22T17:22:48;99009.84;;;17.88;100.00
13241;BME280;6687;47.790;7.322;2022-10-22T17:25:17;99012.91;;;17.72;100.00
13241;BME280;6687;47.790;7.322;2022-10-22T17:27:46;99002.81;;;17.56;100.00
13241;BME280;6687;47.790;7.322;2022-10-22T17:30:15;99005.53;;;17.53;100.00
13241;BME280;6687;47.790;7.322;2022-10-22T17:32:42;99010.22;;;17.40;100.00
13241;BME280;6687;47.790;7.322;2022-10-22T17:35:09;99017.38;;;17.34;100.00
13241;BME280;6687;47.790;7.322;2022-10-22T17:37:37;99009.31;;;17.07;100.00
13241;BME280;6687;47.790;7.322;2022-10-22T17:40:04;99009.78;;;16.85;100.00
13241;BME280;6687;47.790;7.322;2022-10-22T17:42:31;99010.78;;;16.78;100.00
13241;BME280;6687;47.790;7.322;2022-10-22T17:44:59;99007.34;;;16.76;99.41
13241;BME280;6687;47.790;7.322;2022-10-22T17:47:26;99011.94;;;16.65;99.25
13241;BME280;6687;47.790;7.322;2022-10-22T17:49:52;99018.78;;;16.72;99.51
13241;BME280;6687;47.790;7.322;2022-10-22T17:52:19;99022.75;;;16.49;99.30
13241;BME280;6687;47.790;7.322;2022-10-22T17:54:47;99020.47;;;16.73;99.58
13241;BME280;6687;47.790;7.322;2022-10-22T17:57:14;99021.38;;;16.74;100.00
13241;BME280;6687;47.790;7.322;2022-10-22T17:59:40;99028.03;;;16.46;99.98
13241;BME280;6687;47.790;7.322;2022-10-22T18:02:14;99024.78;;;16.35;100.00
13241;BME280;6687;47.790;7.322;2022-10-22T18:04:41;99019.56;;;16.35;100.00
13241;BME280;6687;47.790;7.322;2022-10-22T18:07:08;99021.97;;;16.46;100.00
13241;BME280;6687;47.790;7.322;2022-10-22T18:09:35;99023.75;;;16.44;100.00
13241;BME280;6687;47.790;7.322;2022-10-22T18:12:01;99028.22;;;16.37;100.00
13241;BME280;6687;47.790;7.322;2022-10-22T18:14:28;99037.81;;;16.38;100.00
13241;BME280;6687;47.790;7.322;2022-10-22T18:16:55;99030.75;;;15.98;100.00
13241;BME280;6687;47.790;7.322;2022-10-22T18:19:23;99040.84;;;16.17;100.00
13241;BME280;6687;47.790;7.322;2022-10-22T18:21:50;99033.97;;;16.13;100.00
13241;BME280;6687;47.790;7.322;2022-10-22T18:24:17;99030.56;;;16.07;100.00
13241;BME280;6687;47.790;7.322;2022-10-22T18:26:44;99039.34;;;16.03;100.00
13241;BME280;6687;47.790;7.322;2022-10-22T18:29:14;99030.78;;;15.97;100.00
13241;BME280;6687;47.790;7.322;2022-10-22T18:31:42;99024.47;;;16.07;100.00
13241;BME280;6687;47.790;7.322;2022-10-22T18:34:09;99021.41;;;15.85;100.00
13241;BME280;6687;47.790;7.322;2022-10-22T18:36:38;99030.75;;;15.98;100.00
13241;BME280;6687;47.790;7.322;2022-10-22T18:39:05;99031.16;;;15.77;100.00
13241;BME280;6687;47.790;7.322;2022-10-22T18:41:32;99035.41;;;15.82;100.00
13241;BME280;6687;47.790;7.322;2022-10-22T18:44:02;99035.13;;;15.48;100.00
13241;BME280;6687;47.790;7.322;2022-10-22T18:46:31;99037.75;;;15.45;100.00
13241;BME280;6687;47.790;7.322;2022-10-22T18:48:59;99032.28;;;15.60;100.00
13241;BME280;6687;47.790;7.322;2022-10-22T18:51:28;99039.09;;;15.67;100.00
13241;BME280;6687;47.790;7.322;2022-10-22T18:53:57;99038.28;;;15.65;100.00
13241;BME280;6687;47.790;7.322;2022-10-22T18:56:24;99043.09;;;15.39;100.00
13241;BME280;6687;47.790;7.322;2022-10-22T18:58:51;99034.81;;;15.63;100.00
13241;BME280;6687;47.790;7.322;2022-10-22T19:01:19;99041.94;;;15.55;100.00
13241;BME280;6687;47.790;7.322;2022-10-22T19:03:46;99047.56;;;15.30;100.00
13241;BME280;6687;47.790;7.322;2022-10-22T19:06:15;99042.22;;;15.38;100.00
13241;BME280;6687;47.790;7.322;2022-10-22T19:08:42;99041.16;;;15.50;100.00
13241;BME280;6687;47.790;7.322;2022-10-22T19:11:12;99038.22;;;15.16;100.00
13241;BME280;6687;47.790;7.322;2022-10-22T19:13:40;99035.59;;;15.17;100.00
13241;BME280;6687;47.790;7.322;2022-10-22T19:16:11;99036.97;;;15.40;100.00
13241;BME280;6687;47.790;7.322;2022-10-22T19:18:38;99036.09;;;15.39;100.00
13241;BME280;6687;47.790;7.322;2022-10-22T19:21:04;99038.97;;;15.24;100.00
13241;BME280;6687;47.790;7.322;2022-10-22T19:23:31;99044.03;;;15.35;100.00
13241;BME280;6687;47.790;7.322;2022-10-22T19:25:59;99033.66;;;15.30;100.00
13241;BME280;6687;47.790;7.322;2022-10-22T19:28:27;99034.66;;;15.20;100.00
13241;BME280;6687;47.790;7.322;2022-10-22T19:30:54;99034.84;;;15.09;100.00